This is the latest recevied weather packets stored in our database for station/object VE3CGR-6. If no packets are shown the sender has not sent any weather packets the latest 1 day(s).
| Time | Temp. | Humidity | Pressure | Rain* | Wind** | Luminosity | Snow |
|---|---|---|---|---|---|---|---|
| 1778001618 | 13.33° C | 57% | 1004.6 hPa | 0 mm | 0.45 m/s, 0° | - | - |
| 1778000418 | 13.33° C | 58% | 1003.9 hPa | 0 mm | 0.45 m/s, 23° | - | - |
| 1777999817 | 13.89° C | 59% | 1004 hPa | 0 mm | 0.45 m/s, 338° | - | - |
| 1777999218 | 14.44° C | 62% | 1004 hPa | 0 mm | 0.45 m/s, 23° | - | - |
| 1777988418 | 10.56° C | 71% | 1002.3 hPa | 0 mm | 0.45 m/s, 293° | - | - |
| 1777986017 | 12.78° C | 75% | 1000.9 hPa | 0 mm | 0.45 m/s, 0° | - | - |
| 1777985417 | 12.78° C | 74% | 1000.6 hPa | 0 mm | 0.45 m/s, 338° | - | - |
| 1777984817 | 15.56° C | 73% | 1000.6 hPa | 0 mm | 0.89 m/s, 270° | - | - |
| 1777983017 | 15.56° C | 76% | 1000 hPa | 0 mm | 0.45 m/s, 270° | - | - |
| 1777982417 | 15.56° C | 76% | 999.8 hPa | 0 mm | 0.45 m/s, 203° | - | - |
| 1777981817 | 15.56° C | 75% | 999.9 hPa | 0 mm | 0.45 m/s, 225° | - | - |
| 1777981218 | 15.56° C | 76% | 1000 hPa | 0 mm | 0.45 m/s, 225° | - | - |
| 1777980617 | 15.56° C | 76% | 999.7 hPa | 0 mm | 0.45 m/s, 225° | - | - |
| 1777980017 | 15.56° C | 76% | 999.5 hPa | 0 mm | 0.89 m/s, 225° | - | - |
| 1777978817 | 15.56° C | 76% | 999.5 hPa | 0 mm | 0.45 m/s, 203° | - | - |
| 1777978217 | 15.56° C | 75% | 999.3 hPa | 0 mm | 1.34 m/s, 203° | - | - |
| 1777977617 | 15.56° C | 75% | 999.1 hPa | 0 mm | 0.89 m/s, 225° | - | - |
| 1777977017 | 15.56° C | 75% | 999.2 hPa | 0 mm | 0.45 m/s, 225° | - | - |
| 1777976417 | 15.56° C | 75% | 998.8 hPa | 0 mm | 0.45 m/s, 203° | - | - |
| 1777975817 | 15.56° C | 75% | 998.8 hPa | 0 mm | 0.45 m/s, 203° | - | - |
| 1777975217 | 15.56° C | 75% | 998.8 hPa | 0 mm | 0.45 m/s, 203° | - | - |
| 1777974617 | 16.11° C | 74% | 998.8 hPa | 0 mm | 0.45 m/s, 225° | - | - |
| 1777974017 | 16.11° C | 75% | 998.7 hPa | 0 mm | 0.45 m/s, 225° | - | - |
| 1777973417 | 16.11° C | 75% | 998.7 hPa | 0 mm | 0.45 m/s, 203° | - | - |
| 1777972817 | 16.11° C | 75% | 998.7 hPa | 0 mm | 0.45 m/s, 203° | - | - |
* Rain latest hour (hover to see other rain measurements)
** Current wind speed in m/s (hover to see current wind gust speed)